createdAt,value
2023-02-27T00:01:08.480Z,2.03
2023-02-27T00:03:38.165Z,1.65
2023-02-27T00:06:06.820Z,1.20
2023-02-27T00:08:35.122Z,1.40
2023-02-27T00:11:03.432Z,1.00
2023-02-27T00:13:31.688Z,1.50
2023-02-27T00:16:00.207Z,1.30
2023-02-27T00:18:28.522Z,1.20
2023-02-27T00:20:58.123Z,1.30
2023-02-27T00:23:26.361Z,1.20
2023-02-27T00:25:54.939Z,1.48
2023-02-27T00:28:23.431Z,1.47
2023-02-27T00:30:51.713Z,1.40
2023-02-27T00:33:19.940Z,1.50
2023-02-27T00:35:57.553Z,1.73
2023-02-27T00:38:26.388Z,1.20
2023-02-27T00:40:54.766Z,1.70
2023-02-27T00:43:23.020Z,1.50
2023-02-27T00:45:51.504Z,1.37
2023-02-27T00:48:19.799Z,1.67
2023-02-27T00:50:48.089Z,1.67
2023-02-27T00:53:17.847Z,1.70
2023-02-27T00:55:46.114Z,2.20
2023-02-27T00:58:14.459Z,1.97
2023-02-27T01:00:42.718Z,1.30
2023-02-27T01:03:11.060Z,1.60
2023-02-27T01:05:39.459Z,1.50
2023-02-27T01:08:08.158Z,1.43
2023-02-27T01:10:38.543Z,1.30
2023-02-27T01:13:09.896Z,1.60
2023-02-27T01:15:39.328Z,1.58
2023-02-27T01:18:07.574Z,1.67
2023-02-27T01:20:35.860Z,1.25
2023-02-27T01:23:04.047Z,1.75
2023-02-27T01:25:32.294Z,1.65
2023-02-27T01:28:01.894Z,1.55
2023-02-27T01:30:30.259Z,1.53
2023-02-27T01:32:58.479Z,2.00
2023-02-27T01:35:26.702Z,2.00
2023-02-27T01:37:54.974Z,2.03
2023-02-27T01:40:23.309Z,1.60
2023-02-27T01:42:51.521Z,1.90
2023-02-27T01:45:30.500Z,1.63
2023-02-27T01:48:04.646Z,1.77
2023-02-27T01:50:35.279Z,1.93
2023-02-27T01:53:04.350Z,1.63
2023-02-27T01:55:37.952Z,2.38
2023-02-27T01:58:08.180Z,1.77
2023-02-27T02:00:38.769Z,2.03
2023-02-27T02:03:14.612Z,1.73
2023-02-27T02:05:44.098Z,2.10
2023-02-27T02:08:12.838Z,1.33
2023-02-27T02:10:42.511Z,1.90
2023-02-27T02:13:11.037Z,1.52
2023-02-27T02:15:45.217Z,2.45
2023-02-27T02:18:21.116Z,1.90
2023-02-27T02:21:32.589Z,2.35
2023-02-27T02:24:33.341Z,2.08
2023-02-27T02:27:08.302Z,2.00
2023-02-27T02:30:27.375Z,1.45
2023-02-27T02:33:49.799Z,1.77
2023-02-27T02:36:50.706Z,2.10
2023-02-27T02:39:51.338Z,1.77
2023-02-27T02:42:23.904Z,2.05
2023-02-27T02:44:59.554Z,1.70
2023-02-27T02:47:34.596Z,2.40
2023-02-27T02:50:05.959Z,1.85
2023-02-27T02:52:41.365Z,3.55
2023-02-27T02:55:14.154Z,3.15
2023-02-27T02:57:45.244Z,2.55
2023-02-27T03:00:17.033Z,2.28
2023-02-27T03:02:47.905Z,2.08
2023-02-27T03:05:20.281Z,2.30
2023-02-27T03:07:52.021Z,2.15
2023-02-27T03:10:25.367Z,2.10
2023-02-27T03:12:59.659Z,1.98
2023-02-27T03:15:31.700Z,2.20
2023-02-27T03:18:03.700Z,2.07
2023-02-27T03:20:34.743Z,1.98
2023-02-27T03:23:07.132Z,2.22
2023-02-27T03:25:37.527Z,1.88
2023-02-27T03:28:08.341Z,2.10
2023-02-27T03:30:39.156Z,2.40
2023-02-27T03:33:10.976Z,2.72
2023-02-27T03:35:44.712Z,2.85
2023-02-27T03:38:20.260Z,3.15
2023-02-27T03:40:55.466Z,1.90
2023-02-27T03:43:35.973Z,3.13
2023-02-27T03:46:08.506Z,2.65
2023-02-27T03:48:37.068Z,2.65
2023-02-27T03:51:05.892Z,2.97
2023-02-27T03:53:39.158Z,3.28
2023-02-27T03:56:10.531Z,3.30
2023-02-27T03:58:38.807Z,2.20
2023-02-27T04:01:07.175Z,2.20
2023-02-27T04:03:38.489Z,2.28
2023-02-27T04:06:21.690Z,2.05
2023-02-27T04:08:54.177Z,2.50
2023-02-27T04:11:35.921Z,3.20
2023-02-27T04:14:12.845Z,2.97
2023-02-27T04:16:55.889Z,3.03
2023-02-27T04:19:46.437Z,2.42
2023-02-27T04:22:23.005Z,3.10
2023-02-27T04:24:57.065Z,2.70
2023-02-27T04:27:33.953Z,2.93
2023-02-27T04:30:12.902Z,3.00
2023-02-27T04:32:43.250Z,2.35
2023-02-27T04:35:13.333Z,3.15
2023-02-27T04:37:47.464Z,3.25
2023-02-27T04:40:19.206Z,3.97
2023-02-27T04:42:52.240Z,3.40
2023-02-27T04:45:23.198Z,3.60
2023-02-27T04:47:54.839Z,4.15
2023-02-27T04:50:26.419Z,3.60
2023-02-27T04:52:58.691Z,3.50
2023-02-27T04:55:29.415Z,4.68
2023-02-27T04:58:01.951Z,3.30
2023-02-27T05:00:31.654Z,4.20
2023-02-27T05:03:04.475Z,3.38
2023-02-27T05:05:35.311Z,3.13
2023-02-27T05:08:06.849Z,3.83
2023-02-27T05:10:38.353Z,3.55
2023-02-27T05:13:11.013Z,4.00
2023-02-27T05:15:43.705Z,4.03
2023-02-27T05:18:13.853Z,3.20
2023-02-27T05:20:51.937Z,3.27
2023-02-27T05:23:24.121Z,3.40
2023-02-27T05:25:57.138Z,4.55
2023-02-27T05:28:32.208Z,4.80
2023-02-27T05:31:04.942Z,5.60
2023-02-27T05:33:35.931Z,5.88
2023-02-27T05:36:09.025Z,5.55
2023-02-27T05:38:40.119Z,5.53
2023-02-27T05:41:20.906Z,5.87
2023-02-27T05:43:53.339Z,5.47
2023-02-27T05:46:23.693Z,5.93
2023-02-27T05:48:54.118Z,5.65
2023-02-27T05:51:23.135Z,4.63
2023-02-27T05:53:55.311Z,3.25
2023-02-27T05:56:24.887Z,5.07
2023-02-27T05:58:58.969Z,4.65
2023-02-27T06:01:27.335Z,5.85
2023-02-27T06:03:55.654Z,4.07
2023-02-27T06:06:24.201Z,3.90
2023-02-27T06:08:52.610Z,3.72
2023-02-27T06:11:21.132Z,3.63
2023-02-27T06:13:49.520Z,3.72
2023-02-27T06:16:19.396Z,3.35
2023-02-27T06:18:47.799Z,2.63
2023-02-27T06:21:16.077Z,2.90
2023-02-27T06:23:44.347Z,4.43
2023-02-27T06:26:14.418Z,4.32
2023-02-27T06:28:42.876Z,5.13
2023-02-27T06:31:11.235Z,4.95
2023-02-27T06:33:40.907Z,4.18
2023-02-27T06:36:09.320Z,4.70
2023-02-27T06:38:40.489Z,4.65
2023-02-27T06:41:09.035Z,3.37
2023-02-27T06:43:37.299Z,4.25
2023-02-27T06:46:05.783Z,4.03
2023-02-27T06:48:34.219Z,4.97
2023-02-27T06:51:04.059Z,4.10
2023-02-27T06:53:32.286Z,4.30
2023-02-27T06:56:00.542Z,3.90
2023-02-27T06:58:28.766Z,4.37
2023-02-27T07:00:57.125Z,4.37
2023-02-27T07:03:25.368Z,5.10
2023-02-27T07:05:53.684Z,4.60
2023-02-27T07:08:23.386Z,5.47
2023-02-27T07:10:51.757Z,5.30
2023-02-27T07:13:20.168Z,4.95
2023-02-27T07:15:48.496Z,4.63
2023-02-27T07:18:16.732Z,4.32
2023-02-27T07:20:44.960Z,5.05
2023-02-27T07:23:13.201Z,5.45
2023-02-27T07:25:42.866Z,3.70
2023-02-27T07:28:11.158Z,4.20
2023-02-27T07:30:39.385Z,4.57
2023-02-27T07:33:07.656Z,4.00
2023-02-27T07:35:35.935Z,3.67
2023-02-27T07:38:04.221Z,3.87
2023-02-27T07:40:32.440Z,3.10
2023-02-27T07:43:02.157Z,3.00
2023-02-27T07:45:33.440Z,3.30
2023-02-27T07:48:02.181Z,3.20
2023-02-27T07:50:30.423Z,3.30
2023-02-27T07:52:58.662Z,3.03
2023-02-27T07:55:26.937Z,3.10
2023-02-27T07:57:55.210Z,3.20
2023-02-27T08:00:24.897Z,3.37
2023-02-27T08:02:53.147Z,3.23
2023-02-27T08:05:21.668Z,2.87
2023-02-27T08:07:49.940Z,3.50
2023-02-27T08:10:18.826Z,3.87
2023-02-27T08:12:47.103Z,4.37
2023-02-27T08:15:15.665Z,3.97
2023-02-27T08:17:46.860Z,3.47
2023-02-27T08:20:15.834Z,3.67
2023-02-27T08:22:44.353Z,3.90
2023-02-27T08:25:12.651Z,3.20
2023-02-27T08:27:41.015Z,3.10
2023-02-27T08:30:11.730Z,3.37
2023-02-27T08:32:40.382Z,2.80
2023-02-27T08:35:10.887Z,3.10
2023-02-27T08:37:39.179Z,2.23
2023-02-27T08:40:10.933Z,3.40
2023-02-27T08:42:39.734Z,2.73
2023-02-27T08:45:10.046Z,3.53
2023-02-27T08:47:38.515Z,2.83
2023-02-27T08:50:07.721Z,3.07
2023-02-27T08:52:37.363Z,3.50
2023-02-27T08:55:06.318Z,3.50
2023-02-27T08:57:34.741Z,3.90
2023-02-27T09:00:06.145Z,3.80
2023-02-27T09:02:35.026Z,4.10
2023-02-27T09:05:03.382Z,3.33
2023-02-27T09:07:31.867Z,3.87
2023-02-27T09:10:01.634Z,4.63
2023-02-27T09:12:29.917Z,3.80
2023-02-27T09:14:58.193Z,3.43
2023-02-27T09:17:26.672Z,3.63
2023-02-27T09:19:57.260Z,3.53
2023-02-27T09:22:25.801Z,3.80
2023-02-27T09:24:54.013Z,2.30
2023-02-27T09:27:24.474Z,2.83
2023-02-27T09:29:55.601Z,3.47
2023-02-27T09:32:24.048Z,3.53
2023-02-27T09:34:52.469Z,3.93
2023-02-27T09:37:20.707Z,3.90
2023-02-27T09:39:49.005Z,3.40
2023-02-27T09:42:20.446Z,4.20
2023-02-27T09:44:51.990Z,3.87
2023-02-27T09:47:25.541Z,3.70
2023-02-27T09:50:04.802Z,3.50
2023-02-27T09:52:35.883Z,3.83
2023-02-27T09:55:05.927Z,3.80
2023-02-27T09:57:43.921Z,3.60
2023-02-27T10:00:30.475Z,3.30
2023-02-27T10:03:07.678Z,3.17
2023-02-27T10:05:38.557Z,3.60
2023-02-27T10:08:11.274Z,3.80
2023-02-27T10:10:43.163Z,3.97
2023-02-27T10:13:38.254Z,3.50
2023-02-27T10:16:11.620Z,3.70
2023-02-27T10:18:50.038Z,4.27
2023-02-27T10:21:21.090Z,4.50
2023-02-27T10:23:53.408Z,4.17
2023-02-27T10:26:23.208Z,3.77
2023-02-27T10:28:51.542Z,3.57
2023-02-27T10:31:24.140Z,3.80
2023-02-27T10:33:52.841Z,3.87
2023-02-27T10:36:32.966Z,4.07
2023-02-27T10:39:03.350Z,4.43
2023-02-27T10:41:31.898Z,3.63
2023-02-27T10:44:01.452Z,4.13
2023-02-27T10:46:32.615Z,4.00
2023-02-27T10:49:05.531Z,4.33
2023-02-27T10:51:38.319Z,4.60
2023-02-27T10:54:17.339Z,3.63
2023-02-27T10:56:47.854Z,4.60
2023-02-27T10:59:21.077Z,4.80
2023-02-27T11:01:53.209Z,4.63
2023-02-27T11:04:31.052Z,3.63
2023-02-27T11:07:00.135Z,4.30
2023-02-27T11:09:29.952Z,4.10
2023-02-27T11:12:11.771Z,3.70
2023-02-27T11:14:50.912Z,4.27
2023-02-27T11:17:29.502Z,4.73
2023-02-27T11:19:58.889Z,4.23
2023-02-27T11:22:28.707Z,3.80
2023-02-27T11:25:20.228Z,4.40
2023-02-27T11:27:48.660Z,4.37
2023-02-27T11:30:27.126Z,4.27
2023-02-27T11:32:58.976Z,3.43
2023-02-27T11:35:30.635Z,3.97
2023-02-27T11:38:01.559Z,3.30
2023-02-27T11:40:32.912Z,3.20
2023-02-27T11:43:05.194Z,3.23
2023-02-27T11:46:13.989Z,3.80
2023-02-27T11:48:27.297Z,3.60
2023-02-27T11:51:22.647Z,3.90
2023-02-27T11:54:09.797Z,3.50
2023-02-27T11:56:40.042Z,3.30
2023-02-27T11:59:26.810Z,4.10
2023-02-27T12:01:59.936Z,3.20
2023-02-27T12:04:32.860Z,4.03
2023-02-27T12:07:06.422Z,3.53
2023-02-27T12:09:41.157Z,4.37
2023-02-27T12:12:19.072Z,3.50
2023-02-27T12:14:53.027Z,4.00
2023-02-27T12:17:25.253Z,3.60
2023-02-27T12:20:04.326Z,4.37
2023-02-27T12:22:35.583Z,3.17
2023-02-27T12:25:07.111Z,3.37
2023-02-27T12:27:44.398Z,3.30
2023-02-27T12:30:17.577Z,3.87
2023-02-27T12:32:50.360Z,2.80
2023-02-27T12:35:23.598Z,4.20
2023-02-27T12:37:52.398Z,3.67
2023-02-27T12:40:21.938Z,3.50
2023-02-27T12:43:16.987Z,3.90
2023-02-27T12:45:55.050Z,3.50
2023-02-27T12:48:31.482Z,3.60
2023-02-27T12:51:09.433Z,3.17
2023-02-27T12:53:58.459Z,3.10
2023-02-27T12:56:31.966Z,3.40
2023-02-27T12:59:06.151Z,3.03
2023-02-27T13:01:42.010Z,3.10
2023-02-27T13:04:19.757Z,3.27
2023-02-27T13:06:53.923Z,3.13
2023-02-27T13:09:29.447Z,3.03
2023-02-27T13:12:04.952Z,2.80
2023-02-27T13:14:46.132Z,3.13
2023-02-27T13:17:19.737Z,2.93
2023-02-27T13:19:53.849Z,2.80
2023-02-27T13:22:34.116Z,3.23
2023-02-27T13:25:05.453Z,2.90
2023-02-27T13:27:35.809Z,3.23
2023-02-27T13:30:14.511Z,3.67
2023-02-27T13:32:46.522Z,2.60
2023-02-27T13:35:23.678Z,3.30
2023-02-27T13:37:56.093Z,3.60
2023-02-27T13:40:31.335Z,2.90
2023-02-27T13:43:03.050Z,3.93
2023-02-27T13:45:54.771Z,3.47
2023-02-27T13:48:46.330Z,2.80
2023-02-27T13:51:55.849Z,3.50
2023-02-27T13:54:41.461Z,3.23
2023-02-27T13:57:24.371Z,3.00
2023-02-27T13:59:58.243Z,2.80
2023-02-27T14:02:56.564Z,2.87
2023-02-27T14:05:31.122Z,3.10
2023-02-27T14:08:05.487Z,3.47
2023-02-27T14:10:35.620Z,3.53
2023-02-27T14:13:04.596Z,3.43
2023-02-27T14:15:55.106Z,2.70
2023-02-27T14:18:52.697Z,3.07
2023-02-27T14:21:56.489Z,3.10
2023-02-27T14:24:28.652Z,3.73
2023-02-27T14:26:58.740Z,2.97
2023-02-27T14:29:31.381Z,3.30
2023-02-27T14:32:01.939Z,2.93
2023-02-27T14:34:30.505Z,2.87
2023-02-27T14:37:00.275Z,4.00
2023-02-27T14:39:31.878Z,3.00
2023-02-27T14:42:10.225Z,3.53
2023-02-27T14:44:43.716Z,3.27
2023-02-27T14:47:17.278Z,3.40
2023-02-27T14:49:47.341Z,3.07
2023-02-27T14:52:21.013Z,3.73
2023-02-27T14:54:49.680Z,3.83
2023-02-27T14:57:21.066Z,2.93
2023-02-27T14:59:51.041Z,4.00
2023-02-27T15:02:24.647Z,3.60
2023-02-27T15:04:56.185Z,3.50
2023-02-27T15:07:26.973Z,3.80
2023-02-27T15:09:57.045Z,3.63
2023-02-27T15:12:28.034Z,3.33
2023-02-27T15:14:59.468Z,3.43
2023-02-27T15:17:29.458Z,3.00
2023-02-27T15:19:59.273Z,3.73
2023-02-27T15:22:39.001Z,3.23
2023-02-27T15:25:26.396Z,4.00
2023-02-27T15:27:56.656Z,3.20
2023-02-27T15:30:25.276Z,3.40
2023-02-27T15:32:55.630Z,4.23
2023-02-27T15:35:27.054Z,3.17
2023-02-27T15:37:56.906Z,3.10
2023-02-27T15:40:26.892Z,2.80
2023-02-27T15:42:57.163Z,3.03
2023-02-27T15:45:36.219Z,3.20
2023-02-27T15:48:05.338Z,3.23
2023-02-27T15:50:36.644Z,3.57
2023-02-27T15:53:10.982Z,3.00
2023-02-27T15:55:41.098Z,3.57
2023-02-27T15:58:20.933Z,4.00
2023-02-27T16:00:50.124Z,3.17
2023-02-27T16:03:24.142Z,3.60
2023-02-27T16:05:53.818Z,3.00
2023-02-27T16:08:22.869Z,3.10
2023-02-27T16:11:11.155Z,3.80
2023-02-27T16:13:42.280Z,2.80
2023-02-27T16:16:25.331Z,3.27
2023-02-27T16:18:54.830Z,2.70
2023-02-27T16:21:24.828Z,2.83
2023-02-27T16:23:54.084Z,3.40
2023-02-27T16:26:31.104Z,2.97
2023-02-27T16:29:04.117Z,2.67
2023-02-27T16:31:35.094Z,2.33
2023-02-27T16:34:16.040Z,2.70
2023-02-27T16:36:54.222Z,2.23
2023-02-27T16:39:24.104Z,3.33
2023-02-27T16:41:54.588Z,3.10
2023-02-27T16:44:26.270Z,2.73
2023-02-27T16:46:56.900Z,2.77
2023-02-27T16:49:28.053Z,3.00
2023-02-27T16:51:58.118Z,3.50
2023-02-27T16:54:27.464Z,3.10
2023-02-27T16:56:57.317Z,3.03
2023-02-27T16:59:34.685Z,2.77
2023-02-27T17:02:16.485Z,2.70
2023-02-27T17:04:48.362Z,3.23
2023-02-27T17:07:19.197Z,3.10
2023-02-27T17:09:49.912Z,3.37
2023-02-27T17:12:20.710Z,3.03
2023-02-27T17:14:50.844Z,2.83
2023-02-27T17:18:09.385Z,3.03
2023-02-27T17:20:40.668Z,3.60
2023-02-27T17:23:14.064Z,3.10
2023-02-27T17:25:44.409Z,2.70
2023-02-27T17:28:14.150Z,3.40
2023-02-27T17:30:45.435Z,3.87
2023-02-27T17:33:15.954Z,3.00
2023-02-27T17:35:45.900Z,3.30
2023-02-27T17:38:15.106Z,2.83
2023-02-27T17:40:45.361Z,4.60
2023-02-27T17:43:15.033Z,3.00
2023-02-27T17:45:46.623Z,4.03
2023-02-27T17:48:17.068Z,3.00
2023-02-27T17:50:46.041Z,3.20
2023-02-27T17:53:15.992Z,2.90
2023-02-27T17:55:46.210Z,3.40
2023-02-27T17:58:19.290Z,3.60
2023-02-27T18:01:05.860Z,3.80
2023-02-27T18:03:37.928Z,3.83
2023-02-27T18:06:10.104Z,3.33
2023-02-27T18:08:41.853Z,4.00
2023-02-27T18:11:12.671Z,3.30
2023-02-27T18:13:44.194Z,3.70
2023-02-27T18:16:21.942Z,3.60
2023-02-27T18:18:56.261Z,3.60
2023-02-27T18:21:28.523Z,3.20
2023-02-27T18:23:58.857Z,3.40
2023-02-27T18:26:31.225Z,3.40
2023-02-27T18:29:07.057Z,3.88
2023-02-27T18:31:42.568Z,3.30
2023-02-27T18:34:13.877Z,3.57
2023-02-27T18:36:45.895Z,3.73
2023-02-27T18:39:16.133Z,3.40
2023-02-27T18:41:47.098Z,4.53
2023-02-27T18:44:17.673Z,4.70
2023-02-27T18:46:53.412Z,3.73
2023-02-27T18:49:25.437Z,4.17
2023-02-27T18:52:05.083Z,3.70
2023-02-27T18:54:36.756Z,4.20
2023-02-27T18:57:06.746Z,3.83
2023-02-27T18:59:37.424Z,3.97
2023-02-27T19:02:09.438Z,3.70
2023-02-27T19:04:39.756Z,4.07
2023-02-27T19:07:16.799Z,3.90
2023-02-27T19:09:46.937Z,5.07
2023-02-27T19:12:20.927Z,3.63
2023-02-27T19:14:52.350Z,4.50
2023-02-27T19:17:31.241Z,4.23
2023-02-27T19:20:04.979Z,4.60
2023-02-27T19:22:35.879Z,3.90
2023-02-27T19:25:10.659Z,3.80
2023-02-27T19:27:55.597Z,3.80
2023-02-27T19:30:27.155Z,4.20
2023-02-27T19:32:59.848Z,4.10
2023-02-27T19:35:37.712Z,3.77
2023-02-27T19:38:08.176Z,3.80
2023-02-27T19:40:40.244Z,4.00
2023-02-27T19:43:16.477Z,4.37
2023-02-27T19:45:46.406Z,4.67
2023-02-27T19:48:31.951Z,4.07
2023-02-27T19:51:07.462Z,4.23
2023-02-27T19:53:43.594Z,4.57
2023-02-27T19:56:18.051Z,4.30
2023-02-27T19:58:52.901Z,4.47
2023-02-27T20:01:25.588Z,3.80
2023-02-27T20:04:01.304Z,4.60
2023-02-27T20:06:43.192Z,4.10
2023-02-27T20:09:19.109Z,4.00
2023-02-27T20:11:50.781Z,4.23
2023-02-27T20:14:24.675Z,4.37
2023-02-27T20:17:00.954Z,4.23
2023-02-27T20:19:36.220Z,3.80
2023-02-27T20:22:11.438Z,4.70
2023-02-27T20:24:50.010Z,4.77
2023-02-27T20:27:26.024Z,3.87
2023-02-27T20:29:57.018Z,4.40
2023-02-27T20:32:28.499Z,4.83
2023-02-27T20:35:00.230Z,4.23
2023-02-27T20:37:32.933Z,4.63
2023-02-27T20:40:12.978Z,4.60
2023-02-27T20:42:45.364Z,3.93
2023-02-27T20:45:24.291Z,4.33
2023-02-27T20:47:58.252Z,6.10
2023-02-27T20:50:38.269Z,5.27
2023-02-27T20:53:10.710Z,4.90
2023-02-27T20:55:42.590Z,4.90
2023-02-27T21:01:10.436Z,4.60
2023-02-27T21:03:51.550Z,4.60
2023-02-27T21:06:22.904Z,4.90
2023-02-27T21:08:55.299Z,5.00
2023-02-27T21:11:27.200Z,4.83
2023-02-27T21:13:57.414Z,5.90
2023-02-27T21:16:30.864Z,6.20
2023-02-27T21:19:16.961Z,6.70
2023-02-27T21:21:47.784Z,5.53
2023-02-27T21:24:16.219Z,5.57
2023-02-27T21:27:03.664Z,4.10
2023-02-27T21:29:37.200Z,5.43
2023-02-27T21:32:07.560Z,4.80
2023-02-27T21:34:39.047Z,3.83
2023-02-27T21:37:17.928Z,4.93
2023-02-27T21:39:52.563Z,4.37
2023-02-27T21:42:58.288Z,4.10
2023-02-27T21:45:35.723Z,3.80
2023-02-27T21:48:32.553Z,2.13
2023-02-27T21:51:33.110Z,4.70
2023-02-27T21:54:24.643Z,5.23
2023-02-27T21:57:05.598Z,3.97
2023-02-27T21:59:38.650Z,5.70
2023-02-27T22:02:20.120Z,6.27
2023-02-27T22:04:48.872Z,3.03
2023-02-27T22:07:21.321Z,5.90
2023-02-27T22:09:53.625Z,8.60
2023-02-27T22:12:24.021Z,2.25
2023-02-27T22:14:52.299Z,3.97
2023-02-27T22:17:20.569Z,4.20
2023-02-27T22:19:49.054Z,6.13
2023-02-27T22:22:17.349Z,5.43
2023-02-27T22:24:45.846Z,5.43
2023-02-27T22:27:15.996Z,4.90
2023-02-27T22:29:44.259Z,3.10
2023-02-27T22:32:12.744Z,4.17
2023-02-27T22:34:41.139Z,2.17
2023-02-27T22:37:09.374Z,4.88
2023-02-27T22:39:37.659Z,2.40
2023-02-27T22:42:05.956Z,4.43
2023-02-27T22:44:35.618Z,3.63
2023-02-27T22:47:03.922Z,5.40
2023-02-27T22:49:32.150Z,6.87
2023-02-27T22:52:00.461Z,4.63
2023-02-27T22:54:28.806Z,5.50
2023-02-27T22:56:58.238Z,4.80
2023-02-27T22:59:27.272Z,5.20
2023-02-27T23:01:56.951Z,5.40
2023-02-27T23:04:25.205Z,5.00
2023-02-27T23:06:55.481Z,5.30
2023-02-27T23:09:26.238Z,4.70
2023-02-27T23:11:54.540Z,4.10
2023-02-27T23:14:23.144Z,4.70
2023-02-27T23:16:51.497Z,4.70
2023-02-27T23:19:22.922Z,4.30
2023-02-27T23:21:51.477Z,4.43
2023-02-27T23:24:20.536Z,5.20
2023-02-27T23:26:50.251Z,4.10
2023-02-27T23:29:19.085Z,4.70
2023-02-27T23:31:48.239Z,5.13
2023-02-27T23:34:16.898Z,4.60
2023-02-27T23:36:46.631Z,5.40
2023-02-27T23:39:33.618Z,5.47
2023-02-27T23:42:01.855Z,4.28
2023-02-27T23:44:30.059Z,5.30
2023-02-27T23:46:58.275Z,4.70
2023-02-27T23:49:26.483Z,5.50
2023-02-27T23:51:56.125Z,5.20
2023-02-27T23:54:24.390Z,5.43
2023-02-27T23:56:52.680Z,5.30
2023-02-27T23:59:20.899Z,5.57
